Time;durP1;ratioP1;P1;durP2;ratioP2;P2;SDS_P1;SDS_P2;PMS_P1;PMS_P2;Temp;Humidity;BMP_temperature;BMP_pressure;BME280_temperature;BME280_humidity;BME280_pressure;Samples;Min_cycle;Max_cycle;Signal;HPM_P1;HPM_P2
2023/04/22 00:00:50;;;;;;;19.03;10.47;;;;;;;10.28;100.00;66543.03;5114325;28;20225;-61
2023/04/22 00:03:16;;;;;;;23.13;10.80;;;;;;;10.35;100.00;63619.91;5114076;28;20349;-62
2023/04/22 00:05:45;;;;;;;26.33;10.57;;;;;;;10.32;100.00;57111.69;5113943;28;20194;-61
2023/04/22 00:08:12;;;;;;;27.93;10.83;;;;;;;10.35;100.00;54191.63;5113957;28;20187;-62
2023/04/22 00:10:39;;;;;;;26.60;10.97;;;;;;;10.34;100.00;51919.44;5114187;28;20654;-61
2023/04/22 00:13:05;;;;;;;22.27;10.67;;;;;;;10.43;100.00;53550.34;5113655;28;20232;-62
2023/04/22 00:15:32;;;;;;;13.50;10.13;;;;;;;10.37;100.00;56792.22;5113895;28;20190;-62
2023/04/22 00:17:59;;;;;;;14.87;10.40;;;;;;;10.31;100.00;57111.19;5114019;28;20606;-60
2023/04/22 00:20:26;;;;;;;12.80;10.17;;;;;;;10.29;100.00;49644.47;5113729;28;20188;-61
2023/04/22 00:22:54;;;;;;;14.47;10.97;;;;;;;10.25;100.00;51586.94;5113909;28;20198;-61
2023/04/22 00:25:21;;;;;;;24.73;11.93;;;;;;;10.33;100.00;50944.97;5113723;28;20191;-61
2023/04/22 00:27:48;;;;;;;33.13;12.53;;;;;;;10.44;100.00;51279.59;5113838;28;20191;-61
2023/04/22 00:30:15;;;;;;;27.33;13.87;;;;;;;10.39;100.00;48680.63;5113408;28;20183;-62
2023/04/22 00:32:42;;;;;;;23.07;11.17;;;;;;;10.29;100.00;52887.78;5112820;28;20656;-61
2023/04/22 00:35:09;;;;;;;24.17;10.77;;;;;;;10.33;100.00;55489.00;5113711;28;20553;-62
2023/04/22 00:37:36;;;;;;;22.23;10.97;;;;;;;10.40;100.00;54196.81;5113350;28;20186;-62
2023/04/22 00:40:06;;;;;;;19.10;11.63;;;;;;;10.02;100.00;53187.72;5113275;28;20188;-61
2023/04/22 00:42:33;;;;;;;24.27;14.37;;;;;;;10.47;100.00;52580.25;5113219;28;20219;-61
2023/04/22 00:45:00;;;;;;;23.43;14.00;;;;;;;10.44;100.00;52252.53;5113536;28;20649;-61
2023/04/22 00:47:27;;;;;;;31.57;15.63;;;;;;;10.65;100.00;49027.03;5113143;28;20190;-62
2023/04/22 00:49:54;;;;;;;25.67;16.27;;;;;;;10.59;100.00;46752.34;5113364;28;20565;-61
2023/04/22 00:52:21;;;;;;;25.13;16.70;;;;;;;10.46;100.00;42856.91;5112914;28;20206;-61
2023/04/22 00:54:49;;;;;;;33.57;17.07;;;;;;;10.53;100.00;38980.25;5112939;28;20303;-61
2023/04/22 00:57:18;;;;;;;39.70;20.07;;;;;;;10.58;100.00;40600.25;5112925;28;20188;-61
2023/04/22 00:59:46;;;;;;;34.53;21.53;;;;;;;10.63;100.00;41898.38;5095127;28;20191;-62
2023/04/22 01:02:13;;;;;;;30.60;19.00;;;;;;;10.43;100.00;38973.69;5113114;28;20187;-62
2023/04/22 01:04:40;;;;;;;34.57;20.67;;;;;;;10.38;100.00;36385.31;5112711;28;20190;-61
2023/04/22 01:07:07;;;;;;;40.23;20.33;;;;;;;10.52;100.00;37040.81;5113091;28;20190;-61
2023/04/22 01:09:34;;;;;;;46.23;21.77;;;;;;;10.56;100.00;38335.47;5113050;28;20210;-62
2023/04/22 01:12:02;;;;;;;43.53;22.20;;;;;;;10.59;100.00;38337.50;5112534;28;21045;-61
2023/04/22 01:14:30;;;;;;;34.97;23.37;;;;;;;10.61;100.00;39632.13;5112522;28;20238;-61
2023/04/22 01:16:57;;;;;;;46.37;25.77;;;;;;;10.59;100.00;45132.88;5112565;28;20188;-63
2023/04/22 01:19:24;;;;;;;42.40;24.80;;;;;;;10.54;100.00;47397.19;5112940;28;20187;-62
2023/04/22 01:21:54;;;;;;;39.00;22.17;;;;;;;10.61;100.00;47402.56;5112781;28;20187;-62
2023/04/22 01:24:22;;;;;;;39.17;24.10;;;;;;;10.35;100.00;49325.94;5112490;28;20183;-61
2023/04/22 01:26:49;;;;;;;45.13;24.03;;;;;;;10.47;100.00;52255.72;5112675;28;20638;-61
2023/04/22 01:29:16;;;;;;;56.33;25.07;;;;;;;10.46;100.00;53877.78;5112716;28;20194;-62
2023/04/22 01:31:43;;;;;;;49.93;26.10;;;;;;;10.51;100.00;55830.75;5112494;28;20670;-61
2023/04/22 01:34:11;;;;;;;52.63;27.10;;;;;;;10.53;100.00;56807.50;5112280;28;20574;-62
2023/04/22 01:36:38;;;;;;;53.63;25.73;;;;;;;10.49;100.00;54529.56;5112585;28;20191;-61
2023/04/22 01:39:06;;;;;;;52.57;26.03;;;;;;;10.47;100.00;54852.91;5112492;28;20603;-61
2023/04/22 01:41:34;;;;;;;44.83;27.23;;;;;;;10.34;100.00;53866.53;5112502;28;20523;-61
2023/04/22 01:44:03;;;;;;;45.90;26.23;;;;;;;10.45;100.00;53552.19;5112048;28;20195;-61
2023/04/22 01:46:30;;;;;;;48.90;27.27;;;;;;;10.42;100.00;53874.03;5112120;28;20222;-62
2023/04/22 01:48:57;;;;;;;47.07;29.23;;;;;;;10.12;100.00;52872.56;5112358;28;20618;-61
2023/04/22 01:51:24;;;;;;;42.77;25.97;;;;;;;10.35;100.00;53867.47;5111964;28;20204;-61
2023/04/22 01:53:51;;;;;;;42.83;27.17;;;;;;;10.21;100.00;58725.94;5112221;28;20626;-61
2023/04/22 01:56:18;;;;;;;50.20;25.90;;;;;;;10.01;100.00;59355.41;5112254;28;20202;-61
2023/04/22 01:58:47;;;;;;;38.17;25.63;;;;;;;9.92;100.00;51557.69;5112212;28;20218;-61
2023/04/22 02:01:14;;;;;;;41.03;26.47;;;;;;;9.84;100.00;49929.84;5111889;28;20183;-62
2023/04/22 02:03:41;;;;;;;35.43;24.97;;;;;;;9.88;100.00;47018.69;5112206;28;20187;-61
2023/04/22 02:06:07;;;;;;;42.40;23.43;;;;;;;9.84;100.00;49281.97;5111883;28;20191;-62
2023/04/22 02:08:34;;;;;;;50.00;22.47;;;;;;;9.46;100.00;46984.50;5112237;28;20565;-62
2023/04/22 02:11:01;;;;;;;41.97;25.23;;;;;;;9.76;100.00;46038.00;5111724;28;20272;-61
2023/04/22 02:13:35;;;;;;;45.97;25.30;;;;;;;9.67;100.00;44090.66;5111911;28;20637;-61
2023/04/22 02:16:04;;;;;;;43.97;24.30;;;;;;;9.59;100.00;40530.66;5111945;28;20203;-62
2023/04/22 02:18:30;;;;;;;43.10;23.27;;;;;;;9.22;100.00;37923.19;5111811;28;20187;-62
2023/04/22 02:20:57;;;;;;;35.17;22.43;;;;;;;9.45;100.00;38584.00;5111770;28;20191;-61
2023/04/22 02:23:25;;;;;;;14.53;12.27;;;;;;;9.44;100.00;41165.31;5112121;28;20188;-62
2023/04/22 02:25:53;;;;;;;33.90;19.53;;;;;;;9.43;100.00;41810.47;5111611;28;20190;-62
2023/04/22 02:28:20;;;;;;;28.37;18.90;;;;;;;9.46;100.00;40843.84;5111682;28;20183;-62
2023/04/22 02:30:47;;;;;;;32.20;15.63;;;;;;;9.44;100.00;41488.59;5111745;28;20649;-62
2023/04/22 02:33:15;;;;;;;26.67;16.23;;;;;;;9.49;100.00;42137.91;5111962;28;20203;-61
2023/04/22 02:35:42;;;;;;;22.80;15.50;;;;;;;9.55;100.00;43435.28;5111572;28;20188;-63
2023/04/22 02:38:08;;;;;;;20.63;9.73;;;;;;;9.45;100.00;46984.09;5111910;28;20507;-61
2023/04/22 02:40:35;;;;;;;23.97;12.27;;;;;;;9.63;100.00;57369.34;5111592;28;20184;-61
2023/04/22 02:43:02;;;;;;;24.53;12.50;;;;;;;9.68;100.00;65823.31;5111835;28;20183;-61
2023/04/22 02:45:29;;;;;;;26.67;13.50;;;;;;;9.46;100.00;74266.81;5111856;28;20191;-62
2023/04/22 02:47:56;;;;;;;26.90;13.20;;;;;;;9.29;100.00;62204.34;5111423;28;20183;-61
2023/04/22 02:50:24;;;;;;;32.43;13.03;;;;;;;9.09;100.00;49218.22;5111486;28;20195;-62
2023/04/22 02:52:51;;;;;;;35.37;16.57;;;;;;;9.21;100.00;49552.13;5111486;28;20245;-61
2023/04/22 02:55:18;;;;;;;26.83;15.27;;;;;;;9.22;100.00;50199.84;5113045;28;20562;-61
2023/04/22 02:57:47;;;;;;;26.17;12.47;;;;;;;8.54;100.00;46587.00;5115308;28;20184;-61
2023/04/22 03:00:14;;;;;;;29.77;12.23;;;;;;;8.60;100.00;46914.94;5115518;28;20499;-62
2023/04/22 03:02:41;;;;;;;27.00;12.53;;;;;;;8.77;100.00;51455.25;5115238;28;20183;-62
2023/04/22 03:05:09;;;;;;;23.77;11.37;;;;;;;8.59;100.00;55323.31;5115426;28;20576;-61
2023/04/22 03:07:37;;;;;;;19.27;12.13;;;;;;;8.67;100.00;51446.25;5115547;28;20191;-61
2023/04/22 03:10:04;;;;;;;28.80;12.03;;;;;;;8.57;100.00;53055.38;5115388;28;20187;-61
2023/04/22 03:12:31;;;;;;;23.10;12.10;;;;;;;8.32;100.00;48183.66;5114964;28;20210;-61
2023/04/22 03:14:58;;;;;;;25.67;13.70;;;;;;;8.52;100.00;45616.22;5114826;28;20245;-62
2023/04/22 03:17:26;;;;;;;25.53;13.63;;;;;;;8.48;100.00;39162.69;5114957;28;20191;-61
2023/04/22 03:19:53;;;;;;;31.27;13.23;;;;;;;8.45;100.00;32722.25;5115262;28;20553;-61
2023/04/22 03:22:20;;;;;;;22.43;12.03;;;;;;;8.47;100.00;31116.09;5114767;28;20201;-62
2023/04/22 03:24:48;;;;;;;30.13;14.43;;;;;;;8.43;100.00;30149.69;5114814;28;20179;-61
2023/04/22 03:27:15;;;;;;;22.43;13.67;;;;;;;7.99;100.00;24030.50;5114992;28;20184;-61
2023/04/22 03:29:42;;;;;;;26.67;13.17;;;;;;;8.12;100.00;24998.19;5114598;28;20183;-61
2023/04/22 03:32:09;;;;;;;25.93;13.90;;;;;;;7.98;100.00;25312.13;5114461;28;20307;-62
2023/04/22 03:34:36;;;;;;;28.07;13.53;;;;;;;8.22;100.00;22437.94;5114859;28;20187;-62
2023/04/22 03:37:03;;;;;;;30.70;15.30;;;;;;;7.94;100.00;21465.13;5114712;28;20634;-61
2023/04/22 03:39:30;;;;;;;43.27;16.93;;;;;;;7.81;100.00;20499.91;5114408;28;20186;-61
2023/04/22 03:41:58;;;;;;;39.30;17.80;;;;;;;8.00;100.00;20186.91;5114366;28;20187;-62
2023/04/22 03:44:25;;;;;;;39.57;20.87;;;;;;;8.09;100.00;20190.34;5114399;28;20195;-61
2023/04/22 03:46:52;;;;;;;46.30;23.33;;;;;;;8.31;100.00;16996.97;5114585;28;20558;-61
2023/04/22 03:49:19;;;;;;;45.47;21.77;;;;;;;8.54;100.00;14764.44;5114302;28;20187;-61
2023/04/22 03:51:48;;;;;;;47.47;21.73;;;;;;;8.42;100.00;17000.44;5114622;28;20672;-61
2023/04/22 03:54:15;;;;;;;51.00;22.10;;;;;;;8.42;100.00;19882.22;5114423;28;20195;-60
2023/04/22 03:56:42;;;;;;;53.00;24.17;;;;;;;8.78;100.00;20857.53;5114424;28;20660;-61
2023/04/22 03:59:10;;;;;;;46.83;22.77;;;;;;;8.93;100.00;27283.59;5114188;28;20183;-62
2023/04/22 04:01:37;;;;;;;46.70;23.67;;;;;;;9.21;100.00;31800.84;5114612;28;20180;-61
2023/04/22 04:04:04;;;;;;;60.17;25.03;;;;;;;9.46;100.00;33747.91;5113908;28;20183;-61
2023/04/22 04:06:32;;;;;;;61.57;26.73;;;;;;;9.75;100.00;44096.88;5112999;28;20187;-62
2023/04/22 04:09:00;;;;;;;44.50;23.70;;;;;;;10.06;100.00;54164.75;5114161;28;20191;-61
2023/04/22 04:11:27;;;;;;;41.80;24.63;;;;;;;10.20;100.00;62951.97;5113823;28;20188;-62
2023/04/22 04:13:54;;;;;;;52.83;28.43;;;;;;;10.62;100.00;83900.94;5113663;28;20227;-61
2023/04/22 04:16:22;;;;;;;49.97;28.57;;;;;;;10.90;100.00;96419.00;5113702;28;20194;-60
2023/04/22 04:18:50;;;;;;;53.03;28.67;;;;;;;11.27;100.00;129218.56;5113621;28;20190;-61
2023/04/22 04:21:16;;;;;;;53.90;28.43;;;;;;;11.45;100.00;148919.63;5113980;28;20183;-61
2023/04/22 04:23:43;;;;;;;46.43;27.67;;;;;;;11.85;100.00;149018.34;5113929;28;20184;-61
2023/04/22 04:26:10;;;;;;;57.53;29.10;;;;;;;12.29;100.00;149128.44;5113817;28;20203;-61
2023/04/22 04:28:37;;;;;;;47.90;27.93;;;;;;;12.64;100.00;149215.81;5113546;28;20276;-62
2023/04/22 04:31:04;;;;;;;45.13;24.57;;;;;;;12.86;100.00;149271.50;5113740;28;20183;-62
2023/04/22 04:33:33;;;;;;;31.20;19.73;;;;;;;13.12;100.00;149337.41;5113320;28;20210;-61
2023/04/22 04:36:00;;;;;;;39.90;21.53;;;;;;;13.14;100.00;149342.50;5113368;28;20650;-61
2023/04/22 04:38:27;;;;;;;31.33;19.60;;;;;;;13.47;100.00;149423.53;5113344;28;20248;-62
2023/04/22 04:40:54;;;;;;;39.20;18.07;;;;;;;13.61;100.00;149459.03;5113576;28;20184;-61
2023/04/22 04:43:24;;;;;;;26.10;15.97;;;;;;;13.76;100.00;149495.75;5113572;28;20179;-61
2023/04/22 04:45:51;;;;;;;21.70;14.70;;;;;;;14.23;100.00;149613.63;5113484;28;20199;-62
2023/04/22 04:48:18;;;;;;;23.13;14.83;;;;;;;14.24;100.00;149617.44;5113166;28;20193;-62
2023/04/22 04:50:47;;;;;;;19.97;12.47;;;;;;;14.39;100.00;149654.25;5113091;28;20223;-61
2023/04/22 04:53:13;;;;;;;18.57;13.40;;;;;;;14.27;100.00;149623.78;5112955;28;20218;-60
2023/04/22 04:55:40;;;;;;;33.47;15.40;;;;;;;14.46;100.00;149672.03;5113271;28;20560;-61
2023/04/22 04:58:07;;;;;;;23.20;15.87;;;;;;;14.74;100.00;149743.00;5112912;28;20188;-62
2023/04/22 05:00:34;;;;;;;29.93;14.30;;;;;;;14.93;100.00;149789.97;5112922;28;20184;-62
2023/04/22 05:03:01;;;;;;;26.17;13.47;;;;;;;15.31;100.00;149885.09;5113217;28;20629;-61
2023/04/22 05:05:28;;;;;;;30.10;13.73;;;;;;;15.75;100.00;149996.78;5112860;28;20191;-62
2023/04/22 05:07:56;;;;;;;26.40;13.03;;;;;;;15.59;100.00;149956.19;5112739;28;20195;-62
2023/04/22 05:10:24;;;;;;;25.13;13.23;;;;;;;15.73;100.00;149990.47;5112705;28;20187;-61
2023/04/22 05:12:50;;;;;;;23.53;14.13;;;;;;;16.58;100.00;150205.06;5113005;28;20226;-62
2023/04/22 05:15:17;;;;;;;25.80;14.20;;;;;;;17.06;100.00;150325.69;5112621;28;20246;-61
2023/04/22 05:17:44;;;;;;;20.70;13.67;;;;;;;17.07;100.00;150328.25;5112243;28;20193;-63
2023/04/22 05:20:11;;;;;;;16.73;13.70;;;;;;;16.29;100.00;150131.38;5112567;28;20198;-61
2023/04/22 05:22:40;;;;;;;23.93;12.83;;;;;;;16.38;100.00;150154.19;5112555;28;20274;-62
2023/04/22 05:25:09;;;;;;;18.23;12.57;;;;;;;16.36;100.00;150149.13;5112414;28;20287;-62
2023/04/22 05:27:36;;;;;;;14.57;11.30;;;;;;;17.23;100.00;150367.63;5112786;28;20554;-61
2023/04/22 05:30:04;;;;;;;14.23;11.47;;;;;;;17.18;100.00;150356.22;5112328;28;20188;-62
2023/04/22 05:32:31;;;;;;;13.87;9.93;;;;;;;17.20;100.00;150360.00;5112178;28;20281;-61
2023/04/22 05:34:58;;;;;;;14.30;9.63;;;;;;;17.96;100.00;150550.69;5112259;28;20195;-62
2023/04/22 05:37:25;;;;;;;17.47;9.07;;;;;;;18.75;100.00;150749.13;5112340;28;20199;-62
2023/04/22 05:39:52;;;;;;;14.07;8.33;;;;;;;20.12;100.00;151095.28;5112448;28;20526;-62
2023/04/22 05:42:20;;;;;;;9.30;7.73;;;;;;;21.68;89.09;151489.03;5112535;28;20190;-61
2023/04/22 05:44:47;;;;;;;8.70;6.83;;;;;;;22.13;79.02;151602.53;5112454;28;20183;-62
2023/04/22 05:47:14;;;;;;;6.37;5.60;;;;;;;21.99;77.16;151565.53;5112440;28;20191;-62
2023/04/22 05:49:40;;;;;;;7.43;5.37;;;;;;;20.90;81.75;151292.75;5112040;28;20183;-62
2023/04/22 05:52:07;;;;;;;8.87;4.90;;;;;;;20.44;81.05;151175.56;5111979;28;20234;-62
2023/04/22 05:54:37;;;;;;;8.67;4.57;;;;;;;21.65;74.27;151480.09;5111986;28;20186;-62
2023/04/22 05:57:04;;;;;;;9.30;4.50;;;;;;;21.90;69.30;151542.59;5112089;28;20194;-61
2023/04/22 05:59:32;;;;;;;7.70;4.68;;;;;;;23.53;61.03;151954.69;5112246;28;20187;-62
2023/04/22 06:01:59;;;;;;;4.15;3.80;;;;;;;24.08;55.97;152095.09;5111980;28;20183;-62
2023/04/22 06:04:25;;;;;;;8.25;3.65;;;;;;;24.13;53.22;152106.59;5112345;28;20179;-62
2023/04/22 06:06:53;;;;;;;7.82;3.75;;;;;;;24.69;53.08;152248.38;5111969;28;20626;-62
2023/04/22 06:09:20;;;;;;;6.75;3.50;;;;;;;25.33;50.08;152410.63;5111990;28;20207;-63
2023/04/22 06:11:48;;;;;;;7.38;4.35;;;;;;;25.56;48.13;152468.19;5112093;28;20706;-62
2023/04/22 06:14:15;;;;;;;7.45;3.95;;;;;;;24.95;49.65;152313.59;5111760;28;20597;-62
2023/04/22 06:16:43;;;;;;;7.40;4.78;;;;;;;24.07;52.88;152091.25;5111761;28;20179;-62
2023/04/22 06:19:10;;;;;;;11.32;4.53;;;;;;;22.70;56.08;151745.41;5112125;28;20574;-62
2023/04/22 06:21:39;;;;;;;6.10;4.00;;;;;;;21.51;68.84;151445.72;5111771;28;20187;-61
2023/04/22 06:24:06;;;;;;;13.40;4.30;;;;;;;21.15;69.18;151353.94;5111982;28;20573;-62
2023/04/22 06:26:33;;;;;;;7.80;4.10;;;;;;;20.87;73.06;151283.84;5112042;28;20627;-62
2023/04/22 06:29:04;;;;;;;8.87;3.80;;;;;;;20.59;77.74;151212.47;5111656;28;20187;-62
2023/04/22 06:31:30;;;;;;;12.50;4.07;;;;;;;20.14;79.90;151099.13;5115058;28;20190;-61
2023/04/22 06:33:59;;;;;;;7.13;4.30;;;;;;;19.88;83.46;151035.47;5115619;28;20210;-62
2023/04/22 06:36:26;;;;;;;6.27;3.73;;;;;;;19.31;87.94;150890.34;5115704;28;20226;-61
2023/04/22 06:38:53;;;;;;;7.77;3.90;;;;;;;19.06;91.00;150827.97;5115651;28;20202;-62
2023/04/22 06:41:21;;;;;;;8.70;4.10;;;;;;;18.91;92.58;150789.81;5115858;28;20725;-62
2023/04/22 06:43:49;;;;;;;7.47;4.13;;;;;;;19.07;93.00;150830.53;5115533;28;20184;-62
2023/04/22 06:46:16;;;;;;;6.27;3.50;;;;;;;19.12;90.26;150843.25;5115484;28;20184;-63
2023/04/22 06:48:43;;;;;;;6.53;3.80;;;;;;;19.40;95.90;150914.50;5115724;28;20539;-62
2023/04/22 06:51:12;;;;;;;14.17;3.90;;;;;;;19.55;86.80;150952.75;5115418;28;20270;-62
2023/04/22 06:53:40;;;;;;;4.47;3.60;;;;;;;19.66;86.14;150979.44;5115370;28;20214;-63
2023/04/22 06:56:07;;;;;;;4.30;3.90;;;;;;;19.66;80.49;150979.44;5115340;28;20184;-62
2023/04/22 06:58:34;;;;;;;6.40;3.80;;;;;;;19.67;83.12;150982.00;5115582;28;20191;-62
2023/04/22 07:01:01;;;;;;;9.47;4.10;;;;;;;19.84;83.02;151024.00;5115313;28;20194;-62
2023/04/22 07:03:28;;;;;;;8.67;3.63;;;;;;;19.91;81.54;151041.81;5115541;28;20599;-63
2023/04/22 07:05:55;;;;;;;6.90;3.70;;;;;;;20.20;78.32;151114.41;5115484;28;20190;-63
2023/04/22 07:08:23;;;;;;;7.87;3.23;;;;;;;19.95;77.37;151052.00;5115429;28;20195;-61
2023/04/22 07:10:50;;;;;;;3.63;3.33;;;;;;;20.04;80.66;151076.19;5115035;28;20187;-62
2023/04/22 07:13:17;;;;;;;6.43;3.50;;;;;;;19.88;80.41;151034.19;5115038;28;20223;-62
2023/04/22 07:15:45;;;;;;;5.63;3.20;;;;;;;20.09;79.40;151087.66;5115293;28;20558;-63
2023/04/22 07:18:12;;;;;;;5.30;3.40;;;;;;;19.79;76.96;151011.28;5114885;28;20638;-62
2023/04/22 07:20:39;;;;;;;6.47;3.00;;;;;;;19.38;78.18;150908.16;5114882;28;20183;-61
2023/04/22 07:23:05;;;;;;;2.70;2.50;;;;;;;19.27;80.90;150881.41;5114960;28;20183;-62
2023/04/22 07:25:34;;;;;;;4.20;2.60;;;;;;;19.18;85.65;150858.50;5114751;28;20184;-62
2023/04/22 07:28:00;;;;;;;6.60;2.80;;;;;;;19.25;85.59;150876.34;5114647;28;20199;-62
2023/04/22 07:30:28;;;;;;;9.97;2.80;;;;;;;19.49;86.21;150937.44;5114748;28;20219;-62
2023/04/22 07:32:54;;;;;;;4.17;2.57;;;;;;;19.45;86.61;150927.28;5114854;28;20249;-62
2023/04/22 07:35:21;;;;;;;5.97;2.83;;;;;;;19.45;90.23;150927.28;5114619;28;20210;-62
2023/04/22 07:37:48;;;;;;;9.57;3.27;;;;;;;19.22;84.89;150868.72;5114500;28;20184;-62
2023/04/22 07:40:15;;;;;;;3.90;2.90;;;;;;;19.05;85.39;150825.44;5114773;28;20187;-62
2023/04/22 07:42:43;;;;;;;5.30;3.07;;;;;;;19.14;89.29;150848.31;5114151;28;20191;-62
2023/04/22 07:45:10;;;;;;;9.73;2.90;;;;;;;19.01;89.67;150816.50;5114604;28;20562;-62
2023/04/22 07:47:37;;;;;;;8.80;2.93;;;;;;;19.08;90.29;150834.34;5114712;28;20557;-61
2023/04/22 07:50:05;;;;;;;10.07;2.97;;;;;;;19.41;86.15;150917.03;5114572;28;20549;-61
2023/04/22 07:52:32;;;;;;;4.93;2.60;;;;;;;19.48;83.76;150934.91;5114330;28;20207;-62
2023/04/22 07:54:58;;;;;;;8.67;3.00;;;;;;;19.48;86.10;150934.91;5114233;28;20285;-62
2023/04/22 07:57:25;;;;;;;6.53;2.97;;;;;;;19.54;91.54;150950.19;5114243;28;20188;-61
2023/04/22 07:59:56;;;;;;;5.03;3.30;;;;;;;19.95;87.12;151053.28;5114103;28;20180;-62
2023/04/22 08:02:23;;;;;;;5.80;2.93;;;;;;;20.19;84.22;151113.13;5114444;28;20630;-62
2023/04/22 08:04:50;;;;;;;6.30;2.90;;;;;;;20.27;81.31;151133.50;5114030;28;20187;-62
2023/04/22 08:07:17;;;;;;;9.23;4.13;;;;;;;20.68;85.09;151235.41;5114067;28;20190;-62
2023/04/22 08:09:44;;;;;;;5.37;2.40;;;;;;;20.92;75.08;151297.81;5114013;28;20184;-63
2023/04/22 08:12:10;;;;;;;4.63;2.50;;;;;;;20.94;76.65;151302.94;5114176;28;20294;-63
2023/04/22 08:14:37;;;;;;;3.50;2.90;;;;;;;20.89;81.26;151288.91;5113699;28;20570;-62
2023/04/22 08:17:06;;;;;;;4.03;2.63;;;;;;;21.23;74.99;151375.59;5095675;28;20191;-63
2023/04/22 08:19:32;;;;;;;2.35;2.13;;;;;;;21.32;75.23;151398.53;5114078;28;20187;-62
2023/04/22 08:22:00;;;;;;;4.75;2.22;;;;;;;20.94;73.06;151302.94;5113995;28;20180;-63
2023/04/22 08:24:26;;;;;;;5.40;2.57;;;;;;;20.96;71.48;151308.00;5113641;28;20176;-63
2023/04/22 08:26:53;;;;;;;3.67;2.33;;;;;;;21.15;76.49;151355.22;5113560;28;20195;-63
2023/04/22 08:29:20;;;;;;;4.70;2.30;;;;;;;21.40;69.87;151417.66;5113890;28;20219;-62
2023/04/22 08:31:47;;;;;;;8.77;3.17;;;;;;;21.49;68.86;151439.31;5113932;28;20626;-62
2023/04/22 08:34:15;;;;;;;6.47;2.30;;;;;;;21.51;69.68;151444.44;5113349;28;20204;-63
2023/04/22 08:36:42;;;;;;;6.47;2.60;;;;;;;21.60;73.49;151467.38;5113719;28;20657;-62
2023/04/22 08:39:10;;;;;;;7.03;2.20;;;;;;;21.48;69.13;151436.75;5113488;28;20187;-63
2023/04/22 08:41:37;;;;;;;9.87;2.80;;;;;;;21.55;70.50;151455.91;5095329;28;20191;-62
2023/04/22 08:44:05;;;;;;;3.93;2.47;;;;;;;21.34;67.33;151403.63;5113756;28;20232;-63
2023/04/22 08:46:33;;;;;;;4.83;2.33;;;;;;;21.14;64.73;151351.38;5113730;28;20180;-62
2023/04/22 08:49:02;;;;;;;8.97;2.60;;;;;;;20.55;70.85;151203.56;5113623;28;20660;-63
2023/04/22 08:51:32;;;;;;;3.00;2.27;;;;;;;19.94;73.21;151049.47;5113446;28;20183;-62
2023/04/22 08:53:59;;;;;;;6.67;2.30;;;;;;;20.36;71.59;151156.47;5112327;28;20204;-62
2023/04/22 08:56:27;;;;;;;4.33;1.90;;;;;;;20.65;71.65;151227.78;5113030;28;20183;-62
2023/04/22 08:58:54;;;;;;;2.10;1.90;;;;;;;20.20;69.00;151115.66;5112897;28;20183;-62
2023/04/22 09:01:25;;;;;;;4.73;2.17;;;;;;;20.57;73.80;151207.41;5112894;28;20184;-63
2023/04/22 09:03:53;;;;;;;4.93;2.20;;;;;;;20.85;75.04;151278.72;5113334;28;20194;-63
2023/04/22 09:06:21;;;;;;;8.07;1.95;;;;;;;21.04;71.28;151327.16;5095577;28;20550;-63
2023/04/22 09:08:50;;;;;;;2.87;1.70;;;;;;;21.29;70.44;151390.91;5112763;28;20184;-62
2023/04/22 09:11:17;;;;;;;3.43;1.97;;;;;;;21.40;70.63;151418.94;5113073;28;20221;-61
2023/04/22 09:13:44;;;;;;;2.30;2.00;;;;;;;21.06;65.24;151332.22;5112664;28;20247;-63
2023/04/22 09:16:10;;;;;;;4.22;2.03;;;;;;;21.09;67.48;151339.84;5112989;28;20205;-62
2023/04/22 09:18:42;;;;;;;7.40;2.00;;;;;;;21.50;72.53;151441.88;5112876;28;20510;-63
2023/04/22 09:21:08;;;;;;;2.58;1.70;;;;;;;21.45;61.49;151429.13;5112821;28;20190;-62
2023/04/22 09:23:45;;;;;;;3.30;1.83;;;;;;;21.09;65.66;151339.84;5112444;28;20182;-63
2023/04/22 09:26:14;;;;;;;7.73;2.07;;;;;;;21.42;64.53;151422.75;5112796;28;20183;-62
2023/04/22 09:28:49;;;;;;;7.17;2.20;;;;;;;21.45;68.82;151430.41;5112433;28;20194;-62
2023/04/22 09:31:16;;;;;;;4.57;1.70;;;;;;;21.65;66.52;151481.38;5112592;28;20210;-62
2023/04/22 09:33:48;;;;;;;3.07;1.63;;;;;;;21.75;61.92;151505.59;5112543;28;20256;-62
2023/04/22 09:36:15;;;;;;;5.00;1.50;;;;;;;21.23;67.94;151374.31;5112306;28;20233;-63
2023/04/22 09:38:52;;;;;;;4.07;1.50;;;;;;;21.37;64.63;151411.28;5112550;28;20195;-63
2023/04/22 09:41:26;;;;;;;6.40;1.97;;;;;;;21.05;65.51;151329.66;5112308;28;20183;-62
2023/04/22 09:43:55;;;;;;;3.80;1.40;;;;;;;20.74;66.05;151250.72;5112545;28;20622;-63
2023/04/22 09:46:23;;;;;;;4.30;2.00;;;;;;;20.32;65.83;151146.31;5112219;28;20183;-63
2023/04/22 09:48:50;;;;;;;3.43;1.73;;;;;;;20.91;74.61;151295.31;5112339;28;20183;-63
2023/04/22 09:51:18;;;;;;;4.63;1.80;;;;;;;21.19;70.12;151365.41;5112238;28;20179;-62
2023/04/22 09:53:46;;;;;;;5.77;1.83;;;;;;;21.36;66.73;151408.72;5112010;28;20252;-63
2023/04/22 09:56:12;;;;;;;1.40;1.30;;;;;;;21.65;66.31;151480.09;5112702;28;20633;-63
2023/04/22 09:58:43;;;;;;;2.07;1.70;;;;;;;21.60;67.29;151467.38;5112373;28;20184;-62
2023/04/22 10:01:10;;;;;;;3.53;1.60;;;;;;;21.42;65.67;151424.03;5112339;28;20195;-61
2023/04/22 10:03:37;;;;;;;8.87;1.57;;;;;;;21.13;66.92;151350.09;5112011;28;20271;-62
2023/04/22 10:06:05;;;;;;;2.28;1.55;;;;;;;21.10;71.74;151342.41;5112186;28;20630;-63
2023/04/22 10:08:33;;;;;;;2.90;1.53;;;;;;;21.77;65.13;151510.66;5111917;28;20192;-62
2023/04/22 10:11:00;;;;;;;3.80;1.60;;;;;;;21.80;69.58;151518.34;5111820;28;20187;-62
2023/04/22 10:13:27;;;;;;;10.95;2.53;;;;;;;22.16;71.39;151610.16;5111653;28;20234;-62
2023/04/22 10:15:56;;;;;;;3.53;1.60;;;;;;;22.00;60.01;151568.09;5111984;28;20233;-62
2023/04/22 10:18:25;;;;;;;7.27;1.93;;;;;;;21.50;65.53;151441.88;5111941;28;20627;-63
2023/04/22 10:20:54;;;;;;;2.20;1.47;;;;;;;21.38;61.53;151413.84;5111814;28;20183;-63
2023/04/22 10:23:23;;;;;;;4.13;1.57;;;;;;;21.19;65.35;151365.41;5111834;28;20195;-62
2023/04/22 10:25:53;;;;;;;6.07;2.13;;;;;;;21.38;69.78;151413.84;5111781;28;20184;-62
2023/04/22 10:28:24;;;;;;;5.23;1.67;;;;;;;21.37;64.27;151410.00;5111984;28;20184;-62
2023/04/22 10:30:51;;;;;;;5.07;1.90;;;;;;;21.16;66.78;151357.78;5111524;28;20232;-62
2023/04/22 10:33:38;;;;;;;6.20;1.97;;;;;;;21.13;64.10;151348.88;5111869;28;20193;-62
2023/04/22 10:36:07;;;;;;;5.57;1.60;;;;;;;21.25;60.58;151380.72;5111899;28;20616;-62
2023/04/22 10:38:34;;;;;;;5.35;1.70;;;;;;;21.25;64.73;151380.72;5111652;28;20179;-63
2023/04/22 10:41:02;;;;;;;2.50;1.30;;;;;;;21.21;58.95;151369.25;5111878;28;20179;-61
2023/04/22 10:43:41;;;;;;;5.63;1.57;;;;;;;20.90;57.18;151291.47;5111584;28;20195;-63
2023/04/22 10:46:28;;;;;;;2.17;1.97;;;;;;;21.16;65.46;151357.78;5111843;28;20198;-62
2023/04/22 10:48:57;;;;;;;5.57;1.70;;;;;;;21.27;58.56;151384.50;5111415;28;20260;-62
2023/04/22 10:51:39;;;;;;;6.77;1.50;;;;;;;21.60;62.84;151468.59;5111798;28;20183;-62
2023/04/22 10:54:06;;;;;;;7.80;1.83;;;;;;;21.51;60.50;151445.72;5111454;28;20601;-62
2023/04/22 10:56:33;;;;;;;4.10;1.55;;;;;;;21.61;60.39;151469.88;5111408;28;20194;-62
2023/04/22 10:59:15;;;;;;;5.53;1.40;;;;;;;21.34;60.27;151403.63;5111838;28;20637;-62
2023/04/22 11:01:41;;;;;;;6.87;2.13;;;;;;;21.25;65.62;151380.72;5111659;28;20665;-62
2023/04/22 11:04:22;;;;;;;4.55;1.50;;;;;;;21.07;61.53;151333.50;5111714;28;20203;-62
2023/04/22 11:07:13;;;;;;;2.23;1.40;;;;;;;20.87;62.46;151285.13;5111642;28;20270;-62
2023/04/22 11:09:41;;;;;;;2.10;1.53;;;;;;;20.65;67.45;151227.78;5111346;28;20191;-62
2023/04/22 11:12:44;;;;;;;5.27;1.70;;;;;;;20.51;69.76;151194.66;5111575;28;20643;-62
2023/04/22 11:15:13;;;;;;;4.47;1.70;;;;;;;20.47;69.68;151183.19;5028440;28;20614;-62
2023/04/22 11:17:43;;;;;;;2.30;1.70;;;;;;;20.41;72.27;151169.19;5066780;28;20192;-63
2023/04/22 11:20:13;;;;;;;4.40;1.57;;;;;;;20.38;72.08;151160.28;5074833;28;20648;-61